Time;durP1;ratioP1;P1;durP2;ratioP2;P2;SDS_P1;SDS_P2;PMS_P1;PMS_P2;Temp;Humidity;BMP_temperature;BMP_pressure;BME280_temperature;BME280_humidity;BME280_pressure;Samples;Min_cycle;Max_cycle;Signal;HPM_P1;HPM_P2
2021/12/23 00:01:41;;;;;;;44.55;17.30;;;;;;;19.53;12.60;98963.63;5014309;28;20037;-73
2021/12/23 00:04:10;;;;;;;51.85;21.05;;;;;;;19.03;12.82;98957.44;5014423;28;20101;-74
2021/12/23 00:06:36;;;;;;;47.65;18.88;;;;;;;18.71;13.20;98958.22;5014347;28;20601;-74
2021/12/23 00:09:04;;;;;;;42.90;16.48;;;;;;;19.10;13.04;98953.94;5013999;28;20030;-74
2021/12/23 00:11:31;;;;;;;41.22;14.52;;;;;;;19.62;12.54;98955.75;5009804;28;20038;-74
2021/12/23 00:14:08;;;;;;;40.08;16.25;;;;;;;19.87;12.22;98945.63;5012570;28;20030;-74
2021/12/23 00:19:22;;;;;;;43.28;15.88;;;;;;;20.10;12.23;98942.63;5014309;28;20470;-73
2021/12/23 00:24:38;;;;;;;35.05;14.32;;;;;;;19.89;12.42;98944.06;5014438;28;20135;-73
2021/12/23 00:27:04;;;;;;;38.53;14.85;;;;;;;19.82;12.35;98930.06;5013019;28;20033;-73
2021/12/23 00:29:30;;;;;;;46.60;17.05;;;;;;;19.42;12.68;98920.94;5013642;28;20030;-73
2021/12/23 00:31:57;;;;;;;48.22;16.77;;;;;;;19.55;12.56;98931.41;5013569;28;20037;-73
2021/12/23 00:34:23;;;;;;;38.30;14.82;;;;;;;19.74;12.35;98927.63;5013875;28;20038;-73
2021/12/23 00:36:49;;;;;;;43.17;16.10;;;;;;;19.88;12.12;98917.38;5013815;28;20069;-73
2021/12/23 00:39:16;;;;;;;42.72;16.75;;;;;;;20.01;12.11;98915.09;5013711;28;20034;-74
2021/12/23 00:41:44;;;;;;;41.47;16.80;;;;;;;20.03;12.17;98921.06;5010429;28;20030;-74
2021/12/23 00:44:11;;;;;;;44.10;15.13;;;;;;;19.92;12.32;98909.84;5004978;28;20026;-73
2021/12/23 00:46:38;;;;;;;42.78;17.02;;;;;;;19.44;12.66;98913.78;5013287;28;20037;-74
2021/12/23 00:49:05;;;;;;;50.17;16.67;;;;;;;19.24;12.86;98917.91;5013540;28;20026;-74
2021/12/23 00:51:33;;;;;;;43.95;17.15;;;;;;;19.52;12.66;98914.66;5013437;28;20038;-74
2021/12/23 00:54:04;;;;;;;44.63;17.52;;;;;;;19.81;12.36;98906.16;5013123;28;20026;-74
2021/12/23 00:56:36;;;;;;;46.08;16.17;;;;;;;20.01;12.33;98909.50;5013489;28;20049;-74
2021/12/23 00:59:06;;;;;;;42.00;15.75;;;;;;;20.04;12.23;98910.72;5013437;28;20108;-74
2021/12/23 01:01:32;;;;;;;48.67;18.48;;;;;;;19.90;12.31;98903.06;5013309;28;20030;-74
2021/12/23 01:03:58;;;;;;;45.05;17.65;;;;;;;19.91;12.27;98899.88;5013643;28;20478;-74
2021/12/23 01:06:24;;;;;;;48.28;19.23;;;;;;;19.67;12.44;98894.13;5011892;28;20065;-73
2021/12/23 01:08:51;;;;;;;45.92;16.60;;;;;;;19.45;12.61;98887.53;5003918;28;20075;-74
2021/12/23 01:11:17;;;;;;;49.33;18.75;;;;;;;19.12;12.62;98888.38;5000977;28;20034;-74
2021/12/23 01:13:59;;;;;;;39.75;15.70;;;;;;;18.93;13.00;98882.16;5013422;28;20034;-73
2021/12/23 01:16:37;;;;;;;46.25;18.73;;;;;;;18.68;13.09;98892.19;5013321;28;20037;-73
2021/12/23 01:19:11;;;;;;;41.42;16.00;;;;;;;18.76;13.28;98894.72;5013055;28;20034;-73
2021/12/23 01:21:37;;;;;;;41.45;16.08;;;;;;;18.89;13.06;98887.72;5013236;28;20038;-73
2021/12/23 01:24:03;;;;;;;54.35;20.50;;;;;;;18.80;13.18;98886.41;5013072;28;20101;-74
2021/12/23 01:26:29;;;;;;;35.03;13.07;;;;;;;18.86;13.23;98893.22;5012977;28;20437;-74
2021/12/23 01:28:57;;;;;;;40.15;15.60;;;;;;;19.11;12.74;98889.53;5013462;28;20038;-74
2021/12/23 01:31:26;;;;;;;38.65;16.27;;;;;;;19.13;12.65;98886.38;5013352;28;20030;-74
2021/12/23 01:33:52;;;;;;;36.42;13.63;;;;;;;19.51;12.59;98879.66;5013025;28;20036;-73
2021/12/23 01:36:18;;;;;;;34.28;14.13;;;;;;;19.46;12.50;98878.00;5012302;28;20036;-73
2021/12/23 01:38:44;;;;;;;32.85;13.18;;;;;;;19.60;12.40;98878.16;5012891;28;20084;-74
2021/12/23 01:41:11;;;;;;;47.30;18.15;;;;;;;19.35;12.54;98876.28;5004875;28;20451;-73
2021/12/23 01:43:37;;;;;;;46.25;16.27;;;;;;;19.23;12.73;98871.75;4993395;28;20109;-74
2021/12/23 01:46:03;;;;;;;47.10;17.02;;;;;;;18.89;12.64;98864.63;4993543;28;20114;-73
2021/12/23 01:48:29;;;;;;;46.22;16.52;;;;;;;18.68;12.90;98864.38;4993428;28;20058;-73
2021/12/23 01:50:56;;;;;;;41.35;16.02;;;;;;;18.88;12.71;98863.84;4994298;28;20113;-73
2021/12/23 01:53:22;;;;;;;42.83;15.40;;;;;;;18.68;12.76;98861.59;5012697;28;20038;-73
2021/12/23 01:55:48;;;;;;;36.70;15.18;;;;;;;19.09;12.55;98863.28;5011619;28;20125;-73
2021/12/23 01:58:15;;;;;;;43.47;14.68;;;;;;;19.03;12.53;98859.22;5012944;28;20036;-74
2021/12/23 02:00:44;;;;;;;40.13;14.02;;;;;;;18.46;12.83;98855.78;5011779;28;20558;-74
2021/12/23 02:03:11;;;;;;;36.10;14.80;;;;;;;17.88;13.14;98849.78;5012125;28;20044;-73
2021/12/23 02:05:37;;;;;;;42.25;15.45;;;;;;;17.70;13.16;98845.91;5001727;28;20097;-74
2021/12/23 02:08:03;;;;;;;30.50;13.77;;;;;;;18.15;13.10;98847.78;4998331;28;20039;-73
2021/12/23 02:10:29;;;;;;;32.67;13.23;;;;;;;18.37;12.95;98843.31;5016364;28;20033;-73
2021/12/23 02:12:57;;;;;;;35.80;13.00;;;;;;;18.28;12.90;98840.00;5016321;28;20397;-73
2021/12/23 02:15:23;;;;;;;40.60;13.98;;;;;;;17.88;12.96;98833.09;5016304;28;20105;-73
2021/12/23 02:17:50;;;;;;;34.47;15.15;;;;;;;17.75;13.31;98842.03;5016378;28;20026;-73
2021/12/23 02:20:20;;;;;;;49.10;15.73;;;;;;;17.72;13.44;98834.44;5015230;28;20045;-73
2021/12/23 02:22:47;;;;;;;34.42;15.25;;;;;;;18.08;13.35;98824.66;5016183;28;20129;-73
2021/12/23 02:25:14;;;;;;;41.13;15.07;;;;;;;18.13;12.93;98822.34;5015501;28;20096;-73
2021/12/23 02:27:40;;;;;;;35.58;13.88;;;;;;;17.73;13.17;98811.06;5015860;28;20084;-72
2021/12/23 02:30:12;;;;;;;37.50;13.80;;;;;;;17.76;13.03;98819.41;5016067;28;20116;-73
2021/12/23 02:32:39;;;;;;;36.47;13.55;;;;;;;18.19;12.91;98815.28;5016042;28;20033;-73
2021/12/23 02:35:09;;;;;;;27.00;11.52;;;;;;;18.13;12.77;98813.22;5015756;28;20038;-73
2021/12/23 02:37:35;;;;;;;32.58;12.38;;;;;;;18.16;12.94;98806.88;5015947;28;20038;-73
2021/12/23 02:40:02;;;;;;;31.17;11.55;;;;;;;18.26;12.95;98800.69;5008081;28;20098;-74
2021/12/23 02:42:28;;;;;;;38.25;13.05;;;;;;;17.84;12.60;98795.34;5014315;28;20544;-74
2021/12/23 02:44:55;;;;;;;35.15;14.10;;;;;;;17.71;12.68;98786.41;5015574;28;20088;-74
2021/12/23 02:47:21;;;;;;;43.00;15.18;;;;;;;17.74;12.82;98798.75;5015677;28;20034;-73
2021/12/23 02:49:47;;;;;;;29.58;12.68;;;;;;;17.56;12.65;98792.94;5015484;28;20034;-74
2021/12/23 02:52:15;;;;;;;38.90;14.32;;;;;;;17.80;13.06;98797.28;5015581;28;20041;-74
2021/12/23 02:54:41;;;;;;;31.83;12.40;;;;;;;18.02;12.87;98790.81;5011586;28;20073;-74
2021/12/23 02:57:08;;;;;;;27.77;11.73;;;;;;;18.03;12.70;98792.44;5009713;28;20034;-74
2021/12/23 02:59:34;;;;;;;30.08;12.07;;;;;;;18.24;12.65;98789.13;5015536;28;20033;-74
2021/12/23 03:02:03;;;;;;;41.58;14.15;;;;;;;18.43;12.29;98792.56;5015329;28;20034;-74
2021/12/23 03:04:29;;;;;;;32.22;12.93;;;;;;;18.30;12.14;98777.31;5007906;28;20027;-74
2021/12/23 03:06:56;;;;;;;34.50;12.95;;;;;;;18.08;12.43;98775.44;4995608;28;20054;-74
2021/12/23 03:09:23;;;;;;;32.03;13.10;;;;;;;18.26;12.18;98772.88;5008472;28;20383;-73
2021/12/23 03:11:49;;;;;;;28.02;12.30;;;;;;;18.22;12.01;98777.59;5015135;28;20034;-74
2021/12/23 03:14:15;;;;;;;29.30;11.95;;;;;;;18.45;12.32;98772.72;5015447;28;20030;-73
2021/12/23 03:16:41;;;;;;;28.50;10.75;;;;;;;18.27;12.64;98769.75;5014242;28;20526;-73
2021/12/23 03:19:08;;;;;;;34.30;13.23;;;;;;;17.98;12.45;98772.50;5014687;28;20034;-73
2021/12/23 03:21:36;;;;;;;36.80;13.73;;;;;;;17.88;12.58;98763.66;5015343;28;20034;-74
2021/12/23 03:24:02;;;;;;;34.85;13.32;;;;;;;18.21;12.36;98768.44;5014997;28;20108;-74
2021/12/23 03:26:28;;;;;;;31.70;12.00;;;;;;;18.14;12.42;98762.81;5014718;28;20038;-73
2021/12/23 03:28:54;;;;;;;29.60;11.88;;;;;;;18.22;12.32;98756.19;5014907;28;20022;-73
2021/12/23 03:31:20;;;;;;;28.67;11.32;;;;;;;18.22;12.16;98755.38;5013565;28;20034;-73
2021/12/23 03:33:46;;;;;;;35.67;12.73;;;;;;;18.08;12.40;98758.78;5014506;28;20057;-73
2021/12/23 03:36:12;;;;;;;31.67;12.63;;;;;;;17.81;12.53;98757.19;5014566;28;20474;-73
2021/12/23 03:38:39;;;;;;;28.42;11.35;;;;;;;17.17;12.89;98755.41;5007087;28;20038;-73
2021/12/23 03:41:05;;;;;;;32.33;11.65;;;;;;;16.78;13.27;98751.16;4995175;28;20030;-73
2021/12/23 03:43:31;;;;;;;28.80;11.82;;;;;;;16.47;13.64;98757.69;4995030;28;20446;-74
2021/12/23 03:45:58;;;;;;;29.90;11.80;;;;;;;16.57;13.66;98755.13;4995033;28;20042;-73
2021/12/23 03:48:24;;;;;;;29.77;11.23;;;;;;;16.95;13.20;98743.13;5004724;28;20062;-74
2021/12/23 03:50:50;;;;;;;37.05;12.05;;;;;;;17.26;12.88;98734.56;5013166;28;20034;-74
2021/12/23 03:53:17;;;;;;;29.88;11.10;;;;;;;17.51;12.66;98736.88;5004651;28;20084;-73
2021/12/23 03:55:44;;;;;;;33.08;11.98;;;;;;;17.29;12.88;98733.00;5013558;28;20401;-73
2021/12/23 03:58:10;;;;;;;27.90;10.80;;;;;;;16.98;13.19;98738.81;5014081;28;20485;-73
2021/12/23 04:00:37;;;;;;;32.17;12.88;;;;;;;17.07;12.95;98737.41;5014354;28;20038;-73
2021/12/23 04:03:03;;;;;;;29.20;11.88;;;;;;;17.25;13.17;98730.16;5014027;28;20041;-73
2021/12/23 04:05:29;;;;;;;35.15;11.10;;;;;;;17.21;13.22;98726.53;5009616;28;20130;-73
2021/12/23 04:07:55;;;;;;;32.30;12.23;;;;;;;17.59;12.78;98717.25;5003005;28;20049;-74
2021/12/23 04:10:22;;;;;;;37.53;11.60;;;;;;;17.47;13.00;98708.28;5014065;28;20084;-73
2021/12/23 04:12:49;;;;;;;26.42;10.25;;;;;;;17.50;12.84;98704.78;5014200;28;20044;-74
2021/12/23 04:15:15;;;;;;;35.13;12.10;;;;;;;17.16;12.96;98701.88;5013899;28;20071;-74
2021/12/23 04:17:41;;;;;;;32.45;10.82;;;;;;;17.54;12.57;98700.91;5014072;28;20026;-74
2021/12/23 04:20:22;;;;;;;23.42;8.95;;;;;;;17.45;12.76;98703.13;5014084;28;20049;-74
2021/12/23 04:22:53;;;;;;;25.05;9.48;;;;;;;17.55;12.47;98702.47;5014036;28;20038;-73
2021/12/23 04:25:22;;;;;;;29.63;11.05;;;;;;;17.60;12.61;98707.72;5013642;28;20048;-73
2021/12/23 04:27:51;;;;;;;30.35;10.23;;;;;;;17.35;12.84;98702.94;5013328;28;20041;-73
2021/12/23 04:30:18;;;;;;;29.92;10.57;;;;;;;16.79;13.26;98700.88;5013936;28;20172;-73
2021/12/23 04:32:44;;;;;;;27.23;10.73;;;;;;;16.69;13.25;98704.25;5013998;28;20473;-73
2021/12/23 04:35:11;;;;;;;21.80;9.95;;;;;;;16.89;12.95;98703.03;5013894;28;20120;-74
2021/12/23 04:37:37;;;;;;;27.27;10.05;;;;;;;17.34;12.84;98698.59;5005314;28;20042;-73
2021/12/23 04:40:06;;;;;;;27.40;9.43;;;;;;;17.74;12.67;98698.78;4994105;28;20406;-74
2021/12/23 04:42:33;;;;;;;22.50;8.88;;;;;;;17.44;12.81;98689.59;5006334;28;20478;-73
2021/12/23 04:44:59;;;;;;;28.15;10.65;;;;;;;17.50;12.70;98688.13;5008865;28;20085;-73
2021/12/23 04:47:25;;;;;;;27.98;10.20;;;;;;;16.95;13.43;98687.66;5013609;28;20097;-73
2021/12/23 04:49:51;;;;;;;30.30;9.45;;;;;;;17.53;12.94;98682.63;5013558;28;20032;-73
2021/12/23 04:52:17;;;;;;;25.20;10.48;;;;;;;17.62;12.49;98685.16;5013484;28;20060;-73
2021/12/23 04:54:43;;;;;;;24.33;9.88;;;;;;;17.14;13.06;98679.25;5013567;28;20080;-74
2021/12/23 04:57:09;;;;;;;23.70;9.60;;;;;;;17.03;13.17;98664.44;5013406;28;20100;-74
2021/12/23 04:59:35;;;;;;;28.50;9.55;;;;;;;17.18;12.86;98666.22;5007634;28;20042;-73
2021/12/23 05:02:02;;;;;;;20.85;8.70;;;;;;;17.08;13.15;98660.53;5006245;28;20030;-73
2021/12/23 05:04:28;;;;;;;24.73;8.93;;;;;;;17.32;12.78;98667.63;5010354;28;20478;-73
2021/12/23 05:06:54;;;;;;;21.48;9.10;;;;;;;17.43;12.66;98658.28;5013186;28;20149;-73
2021/12/23 05:09:20;;;;;;;18.77;7.72;;;;;;;17.50;12.88;98652.84;5013370;28;20095;-73
2021/12/23 05:11:46;;;;;;;20.92;8.85;;;;;;;17.26;12.79;98653.28;5013341;28;20070;-73
2021/12/23 05:14:12;;;;;;;24.70;9.27;;;;;;;17.34;12.71;98645.84;5013466;28;20172;-73
2021/12/23 05:16:38;;;;;;;20.35;8.32;;;;;;;16.26;13.68;98646.44;5012950;28;20022;-73
2021/12/23 05:19:05;;;;;;;24.27;9.43;;;;;;;16.39;13.25;98643.13;5013423;28;20501;-73
2021/12/23 05:21:31;;;;;;;17.88;7.43;;;;;;;16.12;13.55;98641.44;5013204;28;20037;-73
2021/12/23 05:23:58;;;;;;;23.65;8.27;;;;;;;16.14;13.66;98638.28;5013491;28;20549;-73
2021/12/23 05:26:24;;;;;;;20.75;8.30;;;;;;;15.82;13.96;98643.22;5013129;28;20100;-73
2021/12/23 05:28:50;;;;;;;26.58;8.30;;;;;;;15.71;14.00;98639.41;5013064;28;20474;-73
2021/12/23 05:31:16;;;;;;;23.80;9.32;;;;;;;16.03;13.81;98631.75;5013166;28;20030;-74
2021/12/23 05:33:42;;;;;;;22.23;8.90;;;;;;;16.45;13.48;98641.63;5013050;28;20099;-73
2021/12/23 05:36:08;;;;;;;22.13;9.43;;;;;;;16.98;13.22;98633.44;5005892;28;20060;-73
2021/12/23 05:38:34;;;;;;;22.05;8.43;;;;;;;17.17;13.05;98636.91;4994406;28;20037;-73
2021/12/23 05:41:00;;;;;;;20.52;8.23;;;;;;;17.49;12.82;98630.97;5013758;28;20038;-73
2021/12/23 05:43:27;;;;;;;25.58;9.02;;;;;;;16.92;13.04;98630.16;5009980;28;20029;-73
2021/12/23 05:45:53;;;;;;;22.33;8.57;;;;;;;16.21;13.83;98624.56;5016919;28;20034;-73
2021/12/23 05:48:19;;;;;;;21.83;8.00;;;;;;;15.85;14.02;98623.91;5016850;28;20034;-73
2021/12/23 05:50:45;;;;;;;22.08;8.85;;;;;;;16.21;13.99;98628.16;5015441;28;20030;-73
2021/12/23 05:53:11;;;;;;;25.08;8.30;;;;;;;15.28;14.39;98621.09;5016737;28;20026;-74
2021/12/23 05:55:37;;;;;;;21.40;8.45;;;;;;;16.40;13.55;98605.94;5011722;28;20494;-73
2021/12/23 05:58:03;;;;;;;18.02;7.75;;;;;;;17.10;13.01;98608.25;4996923;28;20089;-72
2021/12/23 06:00:33;;;;;;;22.27;8.77;;;;;;;17.31;12.86;98600.22;4995793;28;20429;-73
2021/12/23 06:03:01;;;;;;;19.52;7.22;;;;;;;17.32;13.00;98596.25;4997048;28;20069;-73
2021/12/23 06:05:27;;;;;;;22.38;8.80;;;;;;;16.85;13.08;98598.75;4997284;28;20034;-73
2021/12/23 06:07:54;;;;;;;24.75;9.35;;;;;;;16.72;13.30;98598.16;5013292;28;20050;-73
2021/12/23 06:10:20;;;;;;;27.52;8.57;;;;;;;16.56;13.25;98600.28;5016348;28;20034;-73
2021/12/23 06:12:47;;;;;;;23.50;7.82;;;;;;;17.16;13.21;98592.88;5016173;28;20130;-73
2021/12/23 06:15:14;;;;;;;22.00;8.13;;;;;;;17.23;12.68;98601.28;5015052;28;20433;-73
2021/12/23 06:17:40;;;;;;;23.10;7.53;;;;;;;17.29;13.04;98597.81;5017019;28;20026;-73
2021/12/23 06:20:08;;;;;;;24.88;7.90;;;;;;;17.60;12.69;98598.63;5016253;28;20037;-73
2021/12/23 06:22:35;;;;;;;22.58;8.73;;;;;;;16.93;13.26;98597.69;5016289;28;20026;-74
2021/12/23 06:25:03;;;;;;;19.60;7.88;;;;;;;16.79;13.27;98589.16;5015696;28;20018;-74
2021/12/23 06:27:29;;;;;;;23.30;8.52;;;;;;;17.01;13.19;98596.63;5015975;28;20453;-73
2021/12/23 06:29:55;;;;;;;22.77;9.27;;;;;;;17.10;13.01;98594.38;5016170;28;20034;-73
2021/12/23 06:32:21;;;;;;;18.45;8.10;;;;;;;16.61;13.33;98590.84;5015886;28;20548;-73
2021/12/23 06:34:47;;;;;;;21.73;7.90;;;;;;;17.01;13.03;98591.09;5004216;28;20107;-73
2021/12/23 06:37:14;;;;;;;21.80;7.97;;;;;;;17.45;12.83;98591.28;5016035;28;20109;-74
2021/12/23 06:39:40;;;;;;;21.15;8.65;;;;;;;16.76;13.36;98595.44;5015965;28;20034;-73
2021/12/23 06:42:07;;;;;;;21.10;8.27;;;;;;;17.04;13.17;98591.13;5015305;28;20385;-73
2021/12/23 06:44:34;;;;;;;21.83;8.88;;;;;;;16.63;13.46;98582.97;5016120;28;20037;-73
2021/12/23 06:47:00;;;;;;;19.70;7.25;;;;;;;16.89;13.28;98582.97;5015594;28;20064;-73
2021/12/23 06:49:26;;;;;;;18.30;7.35;;;;;;;17.14;13.12;98579.38;5014948;28;20044;-74
2021/12/23 06:51:53;;;;;;;20.02;7.30;;;;;;;16.36;13.72;98571.78;5014766;28;20118;-74
2021/12/23 06:54:19;;;;;;;23.30;9.20;;;;;;;15.42;14.62;98574.38;5015961;28;20030;-73
2021/12/23 06:56:47;;;;;;;21.58;8.65;;;;;;;15.25;14.77;98574.78;5000485;28;20027;-74
2021/12/23 06:59:15;;;;;;;19.98;7.80;;;;;;;15.83;14.35;98578.34;5014630;28;20072;-74
2021/12/23 07:01:42;;;;;;;25.92;7.78;;;;;;;16.01;14.31;98575.94;5015393;28;20034;-73
2021/12/23 07:06:37;;;;;;;20.13;7.90;;;;;;;15.09;15.05;98571.28;5015440;28;20042;-74
2021/12/23 07:09:06;;;;;;;20.48;8.13;;;;;;;14.45;15.75;98560.72;5015318;28;20129;-73
2021/12/23 07:11:33;;;;;;;18.50;7.07;;;;;;;12.57;17.69;98573.13;5015010;28;20026;-74
2021/12/23 07:13:59;;;;;;;24.40;9.23;;;;;;;12.57;17.73;98567.59;5015045;28;20045;-73
2021/12/23 07:16:26;;;;;;;15.20;7.13;;;;;;;14.15;16.52;98568.63;5015057;28;20030;-73
2021/12/23 07:18:52;;;;;;;17.80;7.30;;;;;;;15.21;15.49;98557.31;5015177;28;20038;-73
2021/12/23 07:21:18;;;;;;;25.15;9.05;;;;;;;13.98;16.28;98546.88;5015042;28;20034;-73
2021/12/23 07:23:44;;;;;;;23.95;9.23;;;;;;;13.14;17.37;98548.09;5030210;28;20038;-73
2021/12/23 07:26:10;;;;;;;22.98;9.10;;;;;;;12.88;17.76;98550.47;5013668;28;20516;-73
2021/12/23 07:28:36;;;;;;;21.70;9.38;;;;;;;14.84;16.08;98545.06;5008401;28;20088;-74
2021/12/23 07:31:03;;;;;;;22.75;9.32;;;;;;;15.72;15.09;98542.19;5014956;28;20030;-74
2021/12/23 07:33:29;;;;;;;23.55;9.82;;;;;;;17.04;14.22;98538.41;5010884;28;20061;-73
2021/12/23 07:35:55;;;;;;;21.83;8.65;;;;;;;17.33;13.61;98538.78;5011638;28;20049;-74
2021/12/23 07:38:21;;;;;;;20.35;8.70;;;;;;;17.68;13.45;98540.03;5014536;28;20040;-74
2021/12/23 07:40:47;;;;;;;23.58;9.45;;;;;;;18.36;13.01;98536.72;5007084;28;20039;-73
2021/12/23 07:43:43;;;;;;;18.15;7.40;;;;;;;17.83;13.33;98532.63;4995251;28;20030;-73
2021/12/23 07:46:09;;;;;;;21.85;8.77;;;;;;;16.93;14.06;98534.69;4995189;28;20061;-74
2021/12/23 07:48:35;;;;;;;21.83;8.38;;;;;;;17.73;13.65;98530.56;5001284;28;20030;-74
2021/12/23 07:51:03;;;;;;;20.90;9.38;;;;;;;17.07;14.23;98528.53;5014480;28;20117;-74
2021/12/23 07:53:30;;;;;;;31.00;13.15;;;;;;;16.10;15.28;98529.41;5014246;28;20034;-74
2021/12/23 07:55:56;;;;;;;74.93;31.30;;;;;;;17.48;14.06;98524.69;5014511;28;20034;-74
2021/12/23 07:58:22;;;;;;;39.97;21.02;;;;;;;18.26;13.23;98517.16;5014449;28;20048;-74
2021/12/23 08:00:48;;;;;;;25.27;11.10;;;;;;;18.77;13.16;98526.31;5014525;28;20044;-74
2021/12/23 08:03:14;;;;;;;22.17;9.27;;;;;;;19.55;12.73;98526.75;5014944;28;20422;-74
2021/12/23 08:05:41;;;;;;;23.48;9.23;;;;;;;20.04;12.03;98514.94;5013953;28;20417;-74
2021/12/23 08:08:07;;;;;;;20.15;8.93;;;;;;;20.26;11.99;98506.19;5013916;28;20042;-74
2021/12/23 08:10:33;;;;;;;22.20;9.38;;;;;;;20.32;11.96;98512.19;5011036;28;20481;-73
2021/12/23 08:13:01;;;;;;;23.70;9.68;;;;;;;20.72;12.05;98503.41;5001709;28;20110;-74
2021/12/23 08:15:27;;;;;;;20.67;9.38;;;;;;;21.02;11.65;98495.34;5014133;28;20041;-74
2021/12/23 08:17:53;;;;;;;19.67;8.40;;;;;;;21.01;11.73;98496.53;4998903;28;20394;-73
2021/12/23 08:20:20;;;;;;;26.02;9.68;;;;;;;21.33;11.19;98488.09;4994461;28;20030;-74
2021/12/23 08:22:46;;;;;;;23.42;10.15;;;;;;;21.11;11.37;98492.16;5004047;28;20060;-73
2021/12/23 08:25:13;;;;;;;23.70;9.40;;;;;;;20.83;11.83;98486.63;5007155;28;20069;-74
2021/12/23 08:27:41;;;;;;;24.65;9.15;;;;;;;21.14;11.48;98488.56;4994381;28;20054;-74
2021/12/23 08:30:11;;;;;;;28.50;10.70;;;;;;;21.23;11.70;98486.94;4994406;28;20046;-74
2021/12/23 08:32:38;;;;;;;21.77;8.90;;;;;;;21.55;11.71;98486.78;5003628;28;20038;-74
2021/12/23 08:35:05;;;;;;;23.88;9.85;;;;;;;21.66;11.73;98486.69;5004858;28;20081;-74
2021/12/23 08:37:31;;;;;;;31.65;11.88;;;;;;;21.65;11.41;98480.34;5008619;28;20080;-74
2021/12/23 08:39:57;;;;;;;28.02;10.50;;;;;;;21.78;11.99;98480.66;5003165;28;20493;-74
2021/12/23 08:42:23;;;;;;;25.15;10.48;;;;;;;22.15;11.99;98478.00;5013601;28;20030;-74
2021/12/23 08:44:50;;;;;;;29.92;13.10;;;;;;;22.05;11.64;98464.94;5013915;28;20069;-74
2021/12/23 08:47:16;;;;;;;31.17;12.02;;;;;;;22.11;11.56;98465.25;5013719;28;20038;-74
2021/12/23 08:49:43;;;;;;;31.45;12.98;;;;;;;22.24;11.77;98475.53;5013901;28;20030;-74
2021/12/23 08:52:09;;;;;;;23.75;10.40;;;;;;;22.15;11.87;98460.47;5011676;28;20628;-74
2021/12/23 08:54:36;;;;;;;25.33;11.32;;;;;;;22.14;11.71;98456.06;5013452;28;20045;-74
2021/12/23 08:57:02;;;;;;;25.88;10.93;;;;;;;22.01;11.37;98458.53;5012111;28;20029;-74
2021/12/23 08:59:28;;;;;;;22.40;10.10;;;;;;;21.68;12.08;98456.38;5013521;28;20552;-74
2021/12/23 09:01:55;;;;;;;24.77;11.32;;;;;;;21.87;11.77;98458.66;5013481;28;20544;-74
2021/12/23 09:04:21;;;;;;;27.30;12.10;;;;;;;21.61;11.75;98459.22;5013501;28;20167;-75
2021/12/23 09:06:48;;;;;;;30.80;12.77;;;;;;;21.73;11.98;98453.91;5013059;28;20054;-74
2021/12/23 09:09:14;;;;;;;22.35;10.15;;;;;;;22.19;12.23;98447.22;5013592;28;20114;-74
2021/12/23 09:11:40;;;;;;;17.88;7.53;;;;;;;22.58;12.63;98458.84;5006298;28;20034;-75
2021/12/23 09:14:09;;;;;;;18.50;7.68;;;;;;;22.77;11.48;98440.69;5005712;28;20540;-74
2021/12/23 09:16:35;;;;;;;21.33;8.93;;;;;;;22.98;12.22;98440.47;5011014;28;20030;-74
2021/12/23 09:19:02;;;;;;;36.35;12.75;;;;;;;23.27;12.12;98441.69;5014874;28;20417;-75
2021/12/23 09:21:29;;;;;;;40.78;17.90;;;;;;;23.38;11.89;98436.78;5015868;28;20034;-75
2021/12/23 09:23:55;;;;;;;47.95;20.08;;;;;;;23.08;11.89;98436.75;5016237;28;20072;-74
2021/12/23 09:26:22;;;;;;;37.35;17.13;;;;;;;22.65;11.98;98428.81;5017202;28;20065;-75
2021/12/23 09:34:09;;;;;;;48.95;17.70;;;;;;;22.68;11.93;98416.00;4997768;28;20121;-75
2021/12/23 09:36:37;;;;;;;58.55;20.05;;;;;;;22.80;11.87;98407.06;4997168;28;20030;-75
2021/12/23 09:39:06;;;;;;;60.72;21.45;;;;;;;22.94;12.39;98397.72;5014310;28;20036;-75
2021/12/23 09:41:33;;;;;;;49.17;18.98;;;;;;;23.18;12.40;98394.59;5017126;28;20080;-75
2021/12/23 09:44:01;;;;;;;44.80;17.13;;;;;;;23.17;12.47;98387.41;5016851;28;20025;-75
2021/12/23 09:46:27;;;;;;;68.55;24.25;;;;;;;23.44;12.00;98381.03;5016934;28;20093;-75
2021/12/23 09:48:54;;;;;;;41.75;17.55;;;;;;;23.44;11.61;98376.25;5016389;28;20156;-75
2021/12/23 09:51:23;;;;;;;45.65;18.63;;;;;;;23.47;12.14;98367.00;5016247;28;20064;-75
2021/12/23 09:54:00;;;;;;;54.88;21.77;;;;;;;22.89;11.83;98367.38;5017016;28;20099;-75
2021/12/23 09:56:31;;;;;;;31.67;13.23;;;;;;;22.19;12.13;98366.13;5016688;28;20149;-75
2021/12/23 09:58:58;;;;;;;34.90;14.55;;;;;;;22.19;12.90;98375.31;5016963;28;20029;-75
2021/12/23 10:01:26;;;;;;;36.13;14.70;;;;;;;22.62;12.77;98370.88;5016334;28;20034;-75
2021/12/23 10:03:52;;;;;;;29.98;12.52;;;;;;;23.15;12.86;98355.44;5006319;28;20494;-75
2021/12/23 10:06:18;;;;;;;35.65;12.48;;;;;;;23.33;12.47;98350.34;5015493;28;20050;-75
2021/12/23 10:08:45;;;;;;;26.15;11.05;;;;;;;22.94;11.54;98341.72;5016499;28;20033;-75
2021/12/23 10:33:26;;;;;;;18.15;7.32;;;;;;;20.67;14.68;98284.19;5015999;28;20128;-75
2021/12/23 10:38:43;;;;;;;17.63;7.72;;;;;;;22.26;12.26;98265.38;5003211;28;20121;-75
2021/12/23 10:41:15;;;;;;;15.80;7.28;;;;;;;22.28;13.20;98263.75;5015723;28;20485;-75
2021/12/23 10:43:45;;;;;;;13.23;5.93;;;;;;;22.35;12.60;98258.06;5015824;28;20029;-75
2021/12/23 10:46:16;;;;;;;15.10;7.55;;;;;;;22.68;13.06;98245.28;5016057;28;20398;-75
2021/12/23 10:49:23;;;;;;;16.45;7.72;;;;;;;22.89;12.60;98244.19;5014384;28;20093;-75
2021/12/23 10:52:08;;;;;;;21.15;8.52;;;;;;;23.12;12.94;98219.03;5015881;28;20042;-75
2021/12/23 11:00:22;;;;;;;16.45;7.20;;;;;;;23.02;12.20;98211.56;4996433;28;20045;-75
2021/12/23 11:03:06;;;;;;;19.58;7.50;;;;;;;23.40;12.44;98207.38;4994438;28;20030;-75
2021/12/23 11:05:38;;;;;;;11.70;5.80;;;;;;;23.53;12.30;98202.72;4999682;28;20125;-76
2021/12/23 11:08:16;;;;;;;15.35;6.90;;;;;;;23.37;12.60;98183.00;5015695;28;20488;-75
2021/12/23 11:31:11;;;;;;;12.23;5.55;;;;;;;23.19;12.72;98115.25;5014766;28;20048;-75
2021/12/23 11:43:49;;;;;;;16.70;6.57;;;;;;;22.90;12.42;98078.56;5009617;28;20050;-75
2021/12/23 11:46:44;;;;;;;16.35;7.57;;;;;;;22.80;12.50;98079.53;4998390;28;20120;-75
2021/12/23 11:49:13;;;;;;;10.82;5.72;;;;;;;23.04;12.43;98080.31;5014739;28;20034;-75
2021/12/23 11:54:12;;;;;;;12.00;5.93;;;;;;;22.80;12.51;98067.56;5014891;28;20072;-75
2021/12/23 11:57:03;;;;;;;11.00;5.63;;;;;;;22.90;13.05;98061.75;5029519;28;20053;-75
2021/12/23 11:59:32;;;;;;;15.30;7.22;;;;;;;22.32;12.79;98051.88;4996792;28;20034;-75
2021/12/23 12:01:59;;;;;;;21.95;6.45;;;;;;;22.78;12.52;98048.38;5012566;28;20060;-75
2021/12/23 12:04:29;;;;;;;16.52;7.50;;;;;;;22.67;12.66;98042.97;5014125;28;20038;-75
2021/12/23 12:06:57;;;;;;;16.03;6.27;;;;;;;22.88;12.72;98038.19;4994776;28;20506;-75
2021/12/23 12:09:31;;;;;;;11.07;5.50;;;;;;;22.89;13.34;98040.59;4994879;28;20274;-75
2021/12/23 12:12:08;;;;;;;12.98;6.47;;;;;;;23.08;12.54;98039.81;4995420;28;20048;-75
2021/12/23 12:14:39;;;;;;;18.10;6.22;;;;;;;23.03;12.39;98036.75;5013971;28;20096;-75
2021/12/23 12:17:28;;;;;;;13.60;5.72;;;;;;;22.60;12.18;98039.44;5014689;28;20026;-75
2021/12/23 12:20:45;;;;;;;11.88;5.25;;;;;;;22.99;12.52;98034.00;5012671;28;20027;-75
2021/12/23 12:23:34;;;;;;;8.30;4.38;;;;;;;23.42;12.65;98034.00;5008980;28;20061;-74
2021/12/23 12:26:26;;;;;;;7.63;3.83;;;;;;;23.56;12.57;98027.31;5013792;28;20034;-75
2021/12/23 12:28:55;;;;;;;11.73;5.40;;;;;;;23.07;12.45;98024.25;5013649;28;20486;-75
2021/12/23 12:31:23;;;;;;;7.95;4.03;;;;;;;23.25;13.15;98019.09;5012668;28;20363;-75
2021/12/23 12:34:08;;;;;;;8.95;5.10;;;;;;;23.47;12.22;98008.28;5013791;28;20068;-75
2021/12/23 12:36:49;;;;;;;10.48;5.32;;;;;;;22.98;12.62;97984.03;5026789;28;20042;-75
2021/12/23 12:39:20;;;;;;;7.47;4.55;;;;;;;23.13;12.80;97980.50;5013512;28;20061;-75
2021/12/23 12:41:47;;;;;;;12.27;5.35;;;;;;;22.91;12.62;97982.16;5014074;28;20088;-75
2021/12/23 12:47:00;;;;;;;8.48;4.85;;;;;;;22.82;12.96;97962.34;5013788;28;20034;-75